createdAt,value
2019-03-17T00:00:49.971Z,10.60
2019-03-17T00:05:57.586Z,10.60
2019-03-17T00:11:04.508Z,12.53
2019-03-17T00:16:10.573Z,6.57
2019-03-17T00:21:19.381Z,5.43
2019-03-17T00:26:26.902Z,8.00
2019-03-17T00:31:33.949Z,8.03
2019-03-17T00:36:42.000Z,8.37
2019-03-17T00:41:49.754Z,8.50
2019-03-17T00:46:57.343Z,5.13
2019-03-17T00:52:05.049Z,7.37
2019-03-17T00:57:12.069Z,8.53
2019-03-17T01:02:19.743Z,6.07
2019-03-17T01:07:27.302Z,8.00
2019-03-17T01:12:34.863Z,6.17
2019-03-17T01:17:42.518Z,6.53
2019-03-17T01:22:50.326Z,6.93
2019-03-17T01:27:57.982Z,5.70
2019-03-17T01:33:06.976Z,4.70
2019-03-17T01:38:16.335Z,6.50
2019-03-17T01:43:23.311Z,6.37
2019-03-17T01:48:30.184Z,5.40
2019-03-17T01:53:37.834Z,7.57
2019-03-17T01:58:45.255Z,6.97
2019-03-17T02:03:52.351Z,6.83
2019-03-17T02:08:59.891Z,12.93
2019-03-17T02:14:07.498Z,14.60
2019-03-17T02:19:15.857Z,11.37
2019-03-17T02:24:23.157Z,11.80
2019-03-17T02:29:29.929Z,12.40
2019-03-17T02:34:37.556Z,11.17
2019-03-17T02:39:44.194Z,9.47
2019-03-17T02:44:51.569Z,10.67
2019-03-17T02:49:57.894Z,7.07
2019-03-17T02:55:03.991Z,6.50
2019-03-17T03:00:12.731Z,6.23
2019-03-17T03:05:20.517Z,3.77
2019-03-17T03:10:31.851Z,6.67
2019-03-17T03:15:39.039Z,3.57
2019-03-17T03:20:47.096Z,4.37
2019-03-17T03:25:55.204Z,9.03
2019-03-17T03:31:02.989Z,4.47
2019-03-17T03:36:12.092Z,6.10
2019-03-17T03:41:20.205Z,4.37
2019-03-17T03:46:26.103Z,4.57
2019-03-17T03:51:33.211Z,7.23
2019-03-17T03:56:40.925Z,6.30
2019-03-17T04:01:46.947Z,7.40
2019-03-17T04:06:53.884Z,6.43
2019-03-17T04:12:01.118Z,8.97
2019-03-17T04:17:08.759Z,7.17
2019-03-17T04:22:15.078Z,6.23
2019-03-17T04:27:22.641Z,4.50
2019-03-17T04:32:30.212Z,6.80
2019-03-17T04:37:37.763Z,4.07
2019-03-17T04:42:44.068Z,5.17
2019-03-17T04:47:51.554Z,4.07
2019-03-17T04:53:01.665Z,5.60
2019-03-17T04:58:09.464Z,6.37
2019-03-17T05:03:16.314Z,4.90
2019-03-17T05:08:24.070Z,6.00
2019-03-17T05:13:34.541Z,3.13
2019-03-17T05:18:43.401Z,3.73
2019-03-17T05:23:50.407Z,3.57
2019-03-17T05:28:57.856Z,4.27
2019-03-17T05:34:05.540Z,5.97
2019-03-17T05:39:13.146Z,5.30
2019-03-17T05:44:20.982Z,6.30
2019-03-17T05:49:28.756Z,5.83
2019-03-17T05:54:34.841Z,5.00
2019-03-17T05:59:41.704Z,7.80
2019-03-17T06:04:49.512Z,4.27
2019-03-17T06:09:57.082Z,6.10
2019-03-17T06:15:04.480Z,4.00
2019-03-17T06:20:11.125Z,7.13
2019-03-17T06:25:18.779Z,6.30
2019-03-17T06:30:24.991Z,5.77
2019-03-17T06:35:31.676Z,4.83
2019-03-17T06:40:39.307Z,8.67
2019-03-17T06:45:45.426Z,9.37
2019-03-17T06:50:53.165Z,7.13
2019-03-17T06:56:00.862Z,4.77
2019-03-17T07:01:08.396Z,13.13
2019-03-17T07:06:15.007Z,11.60
2019-03-17T07:11:22.698Z,10.07
2019-03-17T07:16:30.334Z,11.67
2019-03-17T07:21:36.631Z,10.33
2019-03-17T07:26:43.512Z,9.00
2019-03-17T07:31:51.350Z,10.30
2019-03-17T07:36:58.986Z,18.67
2019-03-17T07:42:05.089Z,11.90
2019-03-17T07:47:12.574Z,17.37
2019-03-17T07:52:18.976Z,14.83
2019-03-17T07:57:26.355Z,11.50
2019-03-17T08:02:33.186Z,19.07
2019-03-17T08:07:40.814Z,10.50
2019-03-17T08:12:47.608Z,14.53
2019-03-17T08:17:53.754Z,15.37
2019-03-17T08:23:01.647Z,14.33
2019-03-17T08:28:09.187Z,16.67
2019-03-17T08:33:16.741Z,14.57
2019-03-17T08:38:24.711Z,17.40
2019-03-17T08:43:32.066Z,15.53
2019-03-17T08:48:39.226Z,18.83
2019-03-17T08:53:46.539Z,23.97
2019-03-17T08:58:53.792Z,19.80
2019-03-17T09:04:00.842Z,25.87
2019-03-17T09:09:09.065Z,25.30
2019-03-17T09:14:14.986Z,23.53
2019-03-17T09:19:22.386Z,27.97
2019-03-17T09:24:29.870Z,24.10
2019-03-17T09:29:37.223Z,29.53
2019-03-17T09:34:43.620Z,26.87
2019-03-17T09:39:49.813Z,27.17
2019-03-17T09:44:56.498Z,23.20
2019-03-17T09:50:03.617Z,26.27
2019-03-17T09:55:10.778Z,26.17
2019-03-17T10:00:18.312Z,24.53
2019-03-17T10:05:25.087Z,26.17
2019-03-17T10:10:35.286Z,25.03
2019-03-17T10:15:43.072Z,28.67
2019-03-17T10:20:49.235Z,32.60
2019-03-17T10:25:56.808Z,33.77
2019-03-17T10:31:03.712Z,34.13
2019-03-17T10:36:09.817Z,22.90
2019-03-17T10:41:17.731Z,19.50
2019-03-17T10:46:23.969Z,20.37
2019-03-17T10:51:31.202Z,15.10
2019-03-17T10:56:38.829Z,13.77
2019-03-17T11:01:45.686Z,15.20
2019-03-17T11:06:53.011Z,18.60
2019-03-17T11:11:59.115Z,17.47
2019-03-17T11:17:06.679Z,21.37
2019-03-17T11:22:13.231Z,18.03
2019-03-17T11:27:20.889Z,17.10
2019-03-17T11:32:28.416Z,19.83
2019-03-17T11:37:34.359Z,16.60
2019-03-17T11:42:41.619Z,21.13
2019-03-17T11:47:49.432Z,19.83
2019-03-17T11:52:57.122Z,17.97
2019-03-17T11:58:04.103Z,16.83
2019-03-17T12:03:11.461Z,17.07
2019-03-17T12:08:19.022Z,19.90
2019-03-17T12:13:26.160Z,17.47
2019-03-17T12:18:33.041Z,17.90
2019-03-17T12:23:40.171Z,20.70
2019-03-17T12:28:47.355Z,18.63
2019-03-17T12:33:54.332Z,16.97
2019-03-17T12:39:02.049Z,13.50
2019-03-17T12:44:09.667Z,18.00
2019-03-17T12:49:17.208Z,16.33
2019-03-17T12:54:23.151Z,21.73
2019-03-17T12:59:30.724Z,24.80
2019-03-17T13:04:38.360Z,30.23
2019-03-17T13:09:45.936Z,17.10
2019-03-17T13:14:52.847Z,13.40
2019-03-17T13:19:59.494Z,18.07
2019-03-17T13:25:06.510Z,17.27
2019-03-17T13:30:14.506Z,16.17
2019-03-17T13:35:22.166Z,17.17
2019-03-17T13:40:30.209Z,15.60
2019-03-17T13:45:37.882Z,20.27
2019-03-17T13:50:45.030Z,23.00
2019-03-17T13:55:53.291Z,13.03
2019-03-17T14:00:59.955Z,17.70
2019-03-17T14:06:07.589Z,14.60
2019-03-17T14:11:13.636Z,15.27
2019-03-17T14:16:20.536Z,16.40
2019-03-17T14:21:28.223Z,15.37
2019-03-17T14:26:34.375Z,14.27
2019-03-17T14:31:40.315Z,20.73
2019-03-17T14:36:48.357Z,17.13
2019-03-17T14:41:54.528Z,17.40
2019-03-17T14:47:01.589Z,20.37
2019-03-17T14:52:09.148Z,16.97
2019-03-17T14:57:16.820Z,17.53
2019-03-17T15:02:23.735Z,17.63
2019-03-17T15:07:31.058Z,19.10
2019-03-17T15:12:37.300Z,18.73
2019-03-17T15:17:43.659Z,18.77
2019-03-17T15:22:51.194Z,14.87
2019-03-17T15:27:59.022Z,17.70
2019-03-17T15:33:05.112Z,19.40
2019-03-17T15:38:12.520Z,16.43
2019-03-17T15:43:20.144Z,17.90
2019-03-17T15:48:26.049Z,18.37
2019-03-17T15:53:32.840Z,15.13
2019-03-17T15:58:40.367Z,21.27
2019-03-17T16:03:48.134Z,20.30
2019-03-17T16:08:55.294Z,17.93
2019-03-17T16:14:02.562Z,20.60
2019-03-17T16:19:10.177Z,20.93
2019-03-17T16:24:17.633Z,18.57
2019-03-17T16:29:24.509Z,21.90
2019-03-17T16:34:31.336Z,22.67
2019-03-17T16:39:39.249Z,25.90
2019-03-17T16:44:46.045Z,22.70
2019-03-17T16:49:52.879Z,17.23
2019-03-17T16:54:59.062Z,27.70
2019-03-17T17:00:06.762Z,33.50
2019-03-17T17:05:14.020Z,31.33
2019-03-17T17:10:20.449Z,30.13
2019-03-17T17:15:28.262Z,33.30
2019-03-17T17:20:39.096Z,29.03
2019-03-17T17:45:38.909Z,31.33
2019-03-17T17:51:03.740Z,28.30
2019-03-17T17:56:27.870Z,39.47
2019-03-17T18:01:52.268Z,28.37
2019-03-17T18:07:16.810Z,24.10
2019-03-17T18:12:41.048Z,47.67
2019-03-17T18:18:06.268Z,30.43
2019-03-17T18:23:30.802Z,27.87
2019-03-17T18:28:55.089Z,24.53
2019-03-17T18:34:19.411Z,28.47
2019-03-17T18:39:43.999Z,31.43
2019-03-17T18:45:08.544Z,33.07
2019-03-17T18:50:32.818Z,28.87
2019-03-17T18:55:57.365Z,26.00
2019-03-17T19:01:21.553Z,30.63
2019-03-17T19:06:47.181Z,26.13
2019-03-17T19:12:13.316Z,23.40
2019-03-17T19:17:37.800Z,27.50
2019-03-17T19:23:02.674Z,26.23
2019-03-17T19:28:26.742Z,29.20
2019-03-17T19:34:09.472Z,26.23
2019-03-17T19:39:47.395Z,25.73
2019-03-17T19:45:12.012Z,27.77
2019-03-17T19:50:36.472Z,30.67
2019-03-17T19:56:01.340Z,28.97
2019-03-17T20:01:26.840Z,26.37
2019-03-17T20:07:04.669Z,28.47
2019-03-17T20:12:35.841Z,33.50
2019-03-17T20:18:03.093Z,26.37
2019-03-17T20:23:35.355Z,22.90
2019-03-17T20:28:59.740Z,22.40
2019-03-17T20:34:24.298Z,25.53
2019-03-17T20:39:49.915Z,28.73
2019-03-17T20:45:14.801Z,28.13
2019-03-17T20:50:54.144Z,26.03
2019-03-17T20:56:23.740Z,23.27
2019-03-17T21:01:48.701Z,21.40
2019-03-17T21:07:13.863Z,27.70
2019-03-17T21:12:46.636Z,19.50
2019-03-17T21:18:11.154Z,21.53
2019-03-17T21:23:46.492Z,21.77
2019-03-17T21:29:36.307Z,26.90
2019-03-17T21:35:29.122Z,23.03
2019-03-17T21:41:06.074Z,24.03
2019-03-17T21:46:27.696Z,26.93
2019-03-17T21:51:51.643Z,19.63
2019-03-17T21:57:15.950Z,19.33
2019-03-17T22:03:03.270Z,24.40
2019-03-17T22:08:27.313Z,24.70
2019-03-17T22:13:51.752Z,20.93
2019-03-17T22:19:19.135Z,22.20
2019-03-17T22:24:43.627Z,22.90
2019-03-17T22:30:11.870Z,19.50
2019-03-17T22:35:36.142Z,20.30
2019-03-17T22:41:00.323Z,20.77
2019-03-17T22:46:25.675Z,27.90
2019-03-17T22:51:50.319Z,15.43
2019-03-17T22:57:14.543Z,28.00
2019-03-17T23:02:38.839Z,17.83
2019-03-17T23:08:03.147Z,21.87
2019-03-17T23:13:27.483Z,25.70
2019-03-17T23:18:52.017Z,15.60
2019-03-17T23:24:16.310Z,17.23
2019-03-17T23:29:40.276Z,19.27
2019-03-17T23:35:04.755Z,19.47
2019-03-17T23:40:29.219Z,22.10
2019-03-17T23:45:53.346Z,19.33
2019-03-17T23:51:18.000Z,22.93
2019-03-17T23:56:42.191Z,19.93
